Time;durP1;ratioP1;P1;durP2;ratioP2;P2;SDS_P1;SDS_P2;PMS_P1;PMS_P2;Temp;Humidity;BMP_temperature;BMP_pressure;BME280_temperature;BME280_humidity;BME280_pressure;Samples;Min_cycle;Max_cycle;Signal;HPM_P1;HPM_P2
2023/06/25 00:01:00;;;;;;;13.33;11.97;;;19.00;99.90;;;;;;4927119;28;20449;-80
2023/06/25 00:03:26;;;;;;;12.50;11.32;;;18.90;99.90;;;;;;4926180;28;20449;-78
2023/06/25 00:05:52;;;;;;;15.00;12.03;;;19.00;99.90;;;;;;4922307;29;20420;-78
2023/06/25 00:08:17;;;;;;;13.10;11.73;;;19.00;99.90;;;;;;4940452;28;20626;-79
2023/06/25 00:10:43;;;;;;;12.85;11.52;;;19.00;99.90;;;;;;4932853;29;20454;-79
2023/06/25 00:13:09;;;;;;;13.35;12.05;;;19.10;99.90;;;;;;4935443;28;20435;-78
2023/06/25 00:15:34;;;;;;;12.67;10.77;;;18.70;99.90;;;;;;4932669;29;22172;-78
2023/06/25 00:18:00;;;;;;;12.87;11.70;;;18.80;99.90;;;;;;4936147;28;20440;-80
2023/06/25 00:20:26;;;;;;;13.52;11.60;;;18.90;99.90;;;;;;4933728;29;20426;-79
2023/06/25 00:22:52;;;;;;;14.30;11.23;;;18.90;99.90;;;;;;4931931;28;20439;-78
2023/06/25 00:25:18;;;;;;;12.43;11.15;;;18.80;99.90;;;;;;4930495;29;20443;-79
2023/06/25 00:27:47;;;;;;;13.77;11.60;;;18.70;99.90;;;;;;4945298;28;20507;-79
2023/06/25 00:30:16;;;;;;;12.38;11.18;;;18.80;99.90;;;;;;4936236;29;20451;-79
2023/06/25 00:32:45;;;;;;;13.82;12.38;;;18.80;99.90;;;;;;4942075;28;20443;-79
2023/06/25 00:35:11;;;;;;;13.55;10.90;;;18.80;99.90;;;;;;4935372;29;20496;-79
2023/06/25 00:37:41;;;;;;;13.93;11.93;;;18.80;99.90;;;;;;4942687;28;20934;-79
2023/06/25 00:40:09;;;;;;;12.77;11.57;;;18.70;99.90;;;;;;4918792;29;20424;-78
2023/06/25 00:42:43;;;;;;;14.70;13.25;;;18.60;99.90;;;;;;4942751;29;20429;-77
2023/06/25 00:45:13;;;;;;;13.52;11.75;;;18.60;99.90;;;;;;4937237;29;20993;-79
2023/06/25 00:47:42;;;;;;;14.15;12.15;;;18.60;99.90;;;;;;4927473;28;20508;-79
2023/06/25 00:50:11;;;;;;;13.25;11.60;;;18.50;99.90;;;;;;4934472;28;20762;-79
2023/06/25 00:52:40;;;;;;;13.85;11.90;;;18.20;99.90;;;;;;4924605;28;20773;-79
2023/06/25 00:55:09;;;;;;;13.40;12.10;;;18.10;99.90;;;;;;4933641;28;20432;-79
2023/06/25 00:57:35;;;;;;;16.02;13.32;;;18.10;99.90;;;;;;4952764;28;20476;-76
2023/06/25 01:00:03;;;;;;;16.67;13.30;;;18.00;99.90;;;;;;4942441;28;20439;-78
2023/06/25 01:02:46;;;;;;;14.45;13.02;;;18.10;99.90;;;;;;4944050;28;21247;-80
2023/06/25 01:05:31;;;;;;;13.80;12.38;;;18.00;99.90;;;;;;4980558;28;20439;-79
2023/06/25 01:08:00;;;;;;;17.48;13.23;;;17.90;99.90;;;;;;4937635;28;20439;-80
2023/06/25 01:10:26;;;;;;;15.37;13.63;;;18.00;99.90;;;;;;5003453;23;20572;-79
2023/06/25 01:12:54;;;;;;;15.77;13.37;;;18.20;99.90;;;;;;4923577;28;20455;-80
2023/06/25 01:15:20;;;;;;;14.35;12.95;;;18.20;99.90;;;;;;4932127;28;20431;-79
2023/06/25 01:17:48;;;;;;;15.02;13.18;;;18.00;99.90;;;;;;4929564;28;20921;-78
2023/06/25 01:20:15;;;;;;;13.82;12.52;;;18.10;99.90;;;;;;4928605;29;20784;-79
2023/06/25 01:22:41;;;;;;;14.48;12.23;;;18.20;99.90;;;;;;4931539;28;20929;-80
2023/06/25 01:25:08;;;;;;;13.75;12.35;;;18.30;99.90;;;;;;4924555;29;22351;-78
2023/06/25 01:27:34;;;;;;;14.77;13.27;;;18.30;99.90;;;;;;4935373;28;20755;-78
2023/06/25 01:30:01;;;;;;;14.73;13.18;;;18.20;99.90;;;;;;4937741;29;20500;-78
2023/06/25 01:32:27;;;;;;;15.03;13.30;;;18.00;99.90;;;;;;4916193;28;20494;-77
2023/06/25 01:34:53;;;;;;;15.85;14.23;;;18.20;99.90;;;;;;4926914;29;20497;-79
2023/06/25 01:37:19;;;;;;;14.55;13.15;;;18.10;99.90;;;;;;4929424;28;20437;-81
2023/06/25 01:39:50;;;;;;;14.60;13.10;;;18.10;99.90;;;;;;4928829;29;20431;-79
2023/06/25 01:42:17;;;;;;;16.02;13.88;;;18.00;99.90;;;;;;4905523;29;20470;-80
2023/06/25 01:44:43;;;;;;;15.38;13.88;;;18.10;99.90;;;;;;4934738;28;20463;-79
2023/06/25 01:47:08;;;;;;;16.08;13.07;;;18.00;99.90;;;;;;4931884;28;20435;-78
2023/06/25 01:49:34;;;;;;;15.43;13.90;;;17.90;99.90;;;;;;4924225;28;20456;-79
2023/06/25 01:52:01;;;;;;;14.63;12.85;;;17.70;99.90;;;;;;4927590;28;20428;-79
2023/06/25 01:54:27;;;;;;;15.55;13.57;;;17.90;99.90;;;;;;4928898;29;20497;-79
2023/06/25 01:56:53;;;;;;;16.95;14.57;;;18.00;99.90;;;;;;4934827;29;20946;-79
2023/06/25 01:59:18;;;;;;;15.25;13.77;;;18.00;99.90;;;;;;4922998;29;20441;-79
2023/06/25 02:01:44;;;;;;;14.10;12.70;;;18.10;99.90;;;;;;4927362;29;20434;-80
2023/06/25 02:04:10;;;;;;;16.23;14.67;;;18.00;99.90;;;;;;4922581;28;20494;-79
2023/06/25 02:06:35;;;;;;;15.07;13.48;;;18.10;99.90;;;;;;4930336;28;20435;-78
2023/06/25 02:09:02;;;;;;;15.43;13.43;;;18.10;99.90;;;;;;4935982;29;20758;-78
2023/06/25 02:11:27;;;;;;;14.30;12.80;;;18.10;99.90;;;;;;4906746;29;20439;-78
2023/06/25 02:13:53;;;;;;;14.85;13.35;;;18.10;99.90;;;;;;4924616;29;20861;-79
2023/06/25 02:16:19;;;;;;;14.57;13.05;;;18.20;99.90;;;;;;4926452;28;20927;-77
2023/06/25 02:18:45;;;;;;;15.33;13.77;;;18.00;99.90;;;;;;4926458;28;20554;-79
2023/06/25 02:21:10;;;;;;;15.20;13.60;;;18.00;99.90;;;;;;4930587;29;20440;-80
2023/06/25 02:23:36;;;;;;;15.60;12.68;;;18.20;99.90;;;;;;4911653;28;20440;-80
2023/06/25 02:26:02;;;;;;;15.20;13.40;;;18.20;99.90;;;;;;4929164;28;20493;-79
2023/06/25 02:28:28;;;;;;;13.55;12.20;;;18.20;99.90;;;;;;4931575;29;20432;-81
2023/06/25 02:30:53;;;;;;;14.67;13.27;;;18.10;99.90;;;;;;4926857;28;20428;-79
2023/06/25 02:33:19;;;;;;;15.95;13.48;;;18.10;99.90;;;;;;4931185;28;20984;-78
2023/06/25 02:35:45;;;;;;;15.63;12.90;;;18.10;99.90;;;;;;4925162;29;20431;-81
2023/06/25 02:38:10;;;;;;;15.40;13.80;;;18.10;99.90;;;;;;4927856;29;20443;-79
2023/06/25 02:40:36;;;;;;;15.23;13.73;;;17.80;99.90;;;;;;4926424;29;20492;-78
2023/06/25 02:43:02;;;;;;;15.60;13.23;;;18.00;99.90;;;;;;4928482;29;20428;-78
2023/06/25 02:45:27;;;;;;;15.35;13.73;;;18.00;99.90;;;;;;4931502;28;20435;-79
2023/06/25 02:47:53;;;;;;;14.15;12.82;;;18.00;99.90;;;;;;4928905;28;20486;-78
2023/06/25 02:50:19;;;;;;;14.67;13.17;;;17.80;99.90;;;;;;4923410;29;20444;-77
2023/06/25 02:52:44;;;;;;;15.73;13.30;;;17.80;99.90;;;;;;4935086;29;20420;-80
2023/06/25 02:55:10;;;;;;;15.70;13.25;;;17.70;99.90;;;;;;4935426;28;20496;-79
2023/06/25 02:57:36;;;;;;;15.88;13.77;;;17.90;99.90;;;;;;4979264;28;20780;-78
2023/06/25 03:00:06;;;;;;;14.73;13.00;;;17.80;99.90;;;;;;4932114;28;20432;-78
2023/06/25 03:02:32;;;;;;;15.10;13.60;;;17.80;99.90;;;;;;4934389;28;20431;-79
2023/06/25 03:04:58;;;;;;;15.18;13.45;;;17.80;99.90;;;;;;4935539;28;20444;-79
2023/06/25 03:07:24;;;;;;;16.10;14.32;;;17.90;99.90;;;;;;4935326;28;20451;-79
2023/06/25 03:09:49;;;;;;;20.92;14.93;;;17.90;99.90;;;;;;4916050;28;20527;-78
2023/06/25 03:12:15;;;;;;;16.33;14.37;;;17.90;99.90;;;;;;4916036;29;20447;-79
2023/06/25 03:14:41;;;;;;;18.30;14.33;;;17.60;99.90;;;;;;4925201;29;20471;-79
2023/06/25 03:17:07;;;;;;;18.65;14.68;;;17.70;99.90;;;;;;4931850;29;20439;-78
2023/06/25 03:19:33;;;;;;;16.85;14.27;;;17.80;99.90;;;;;;4933434;28;20439;-78
2023/06/25 03:21:59;;;;;;;15.15;13.65;;;17.80;99.90;;;;;;4955454;28;20511;-79
2023/06/25 03:24:24;;;;;;;15.68;13.57;;;17.80;99.90;;;;;;4932645;28;20450;-79
2023/06/25 03:26:50;;;;;;;18.10;14.40;;;17.80;99.90;;;;;;4934486;29;20438;-80
2023/06/25 03:29:16;;;;;;;14.65;13.23;;;17.70;99.90;;;;;;4934224;28;20439;-78
2023/06/25 03:31:42;;;;;;;15.13;13.48;;;17.60;99.90;;;;;;4927095;29;20438;-79
2023/06/25 03:34:08;;;;;;;16.48;13.63;;;17.70;99.90;;;;;;4934370;29;20436;-78
2023/06/25 03:36:34;;;;;;;15.93;13.73;;;17.70;99.90;;;;;;4918535;28;20850;-80
2023/06/25 03:39:00;;;;;;;15.88;13.40;;;17.70;99.90;;;;;;4936056;28;20939;-79
2023/06/25 03:41:26;;;;;;;15.60;13.88;;;17.50;99.90;;;;;;4934415;29;20893;-80
2023/06/25 03:43:51;;;;;;;15.40;13.80;;;17.60;99.90;;;;;;4915933;29;21047;-78
2023/06/25 03:46:17;;;;;;;16.90;15.10;;;17.60;99.90;;;;;;4929906;28;20420;-80
2023/06/25 03:48:44;;;;;;;17.87;15.03;;;17.60;99.90;;;;;;4933464;28;20439;-79
2023/06/25 03:51:10;;;;;;;14.95;13.32;;;17.80;99.90;;;;;;4930365;28;20439;-79
2023/06/25 03:53:39;;;;;;;15.40;13.80;;;17.80;99.90;;;;;;4934225;29;20569;-81
2023/06/25 03:56:04;;;;;;;16.52;14.05;;;17.70;99.90;;;;;;4933476;29;20526;-79
2023/06/25 03:58:30;;;;;;;15.65;14.13;;;17.90;99.90;;;;;;4935212;28;20459;-79
2023/06/25 04:00:56;;;;;;;16.67;14.73;;;17.90;99.90;;;;;;4909264;28;20427;-80
2023/06/25 04:03:22;;;;;;;14.82;13.27;;;17.80;99.90;;;;;;4934241;28;20434;-78
2023/06/25 04:05:48;;;;;;;15.70;14.05;;;17.90;99.90;;;;;;4915353;29;20570;-78
2023/06/25 04:08:14;;;;;;;15.30;13.68;;;18.00;99.90;;;;;;4934639;28;20428;-80
2023/06/25 04:10:43;;;;;;;16.45;14.85;;;18.00;99.90;;;;;;4931291;28;20543;-80
2023/06/25 04:13:09;;;;;;;18.10;14.38;;;18.10;99.90;;;;;;4916040;29;20925;-80
2023/06/25 04:15:34;;;;;;;15.27;13.20;;;18.30;99.90;;;;;;4915230;29;20485;-81
2023/06/25 04:18:00;;;;;;;15.63;14.02;;;18.30;99.90;;;;;;4930976;29;20518;-81
2023/06/25 04:20:27;;;;;;;15.10;13.65;;;18.40;99.90;;;;;;4931706;28;20427;-80
2023/06/25 04:22:56;;;;;;;14.13;12.63;;;18.40;99.90;;;;;;4934991;28;20493;-80
2023/06/25 04:25:22;;;;;;;14.15;12.85;;;18.40;99.90;;;;;;4925684;28;20441;-81
2023/06/25 04:27:49;;;;;;;17.40;12.93;;;18.50;99.90;;;;;;4929789;29;20481;-79
2023/06/25 04:30:15;;;;;;;15.55;13.95;;;18.60;99.90;;;;;;4938485;28;20442;-79
2023/06/25 04:32:40;;;;;;;14.45;12.85;;;18.60;99.90;;;;;;4934399;29;20485;-78
2023/06/25 04:35:06;;;;;;;16.42;13.95;;;19.00;99.90;;;;;;4932931;28;20439;-81
2023/06/25 04:37:32;;;;;;;15.13;13.52;;;19.30;99.90;;;;;;4925787;29;20429;-79
2023/06/25 04:39:59;;;;;;;13.80;12.40;;;19.50;99.90;;;;;;4934857;29;20493;-82
2023/06/25 04:42:25;;;;;;;15.48;13.98;;;19.20;99.90;;;;;;4939343;29;20526;-82
2023/06/25 04:44:52;;;;;;;15.15;13.48;;;19.20;99.90;;;;;;4939852;29;20965;-79
2023/06/25 04:47:18;;;;;;;13.73;12.43;;;19.10;99.90;;;;;;4922304;29;20426;-81
2023/06/25 04:49:43;;;;;;;13.82;12.43;;;19.20;99.90;;;;;;4938442;29;20942;-81
2023/06/25 04:52:17;;;;;;;17.00;13.33;;;19.20;99.90;;;;;;4907498;29;20432;-79
2023/06/25 04:54:42;;;;;;;14.38;12.55;;;19.30;99.90;;;;;;4940909;28;20412;-83
2023/06/25 04:57:09;;;;;;;14.37;12.13;;;19.30;99.90;;;;;;4951497;29;20769;-81
2023/06/25 04:59:35;;;;;;;15.50;12.20;;;19.40;99.90;;;;;;4951078;28;20774;-79
2023/06/25 05:02:01;;;;;;;12.80;11.50;;;19.30;99.90;;;;;;4953988;28;20417;-81
2023/06/25 05:04:27;;;;;;;14.13;12.30;;;19.90;99.90;;;;;;4930485;28;20440;-79
2023/06/25 05:06:52;;;;;;;13.63;12.23;;;19.70;99.90;;;;;;4936083;28;20514;-81
2023/06/25 05:09:18;;;;;;;14.25;12.88;;;19.60;99.90;;;;;;4933302;29;20957;-83
2023/06/25 05:11:43;;;;;;;13.80;12.27;;;19.70;99.90;;;;;;4934195;28;20427;-82
2023/06/25 05:14:09;;;;;;;13.18;11.85;;;19.60;99.90;;;;;;4917539;28;20910;-83
2023/06/25 05:16:35;;;;;;;12.60;11.30;;;19.50;99.90;;;;;;4933349;29;20435;-81
2023/06/25 05:19:04;;;;;;;13.80;12.32;;;19.60;99.90;;;;;;4934187;29;20743;-79
2023/06/25 05:21:29;;;;;;;13.13;11.82;;;19.70;99.90;;;;;;4934216;28;20477;-79
2023/06/25 05:24:00;;;;;;;13.10;11.45;;;19.70;99.90;;;;;;4933285;28;20450;-80
2023/06/25 05:26:26;;;;;;;12.40;11.02;;;19.60;99.90;;;;;;4939392;28;20510;-81
2023/06/25 05:28:52;;;;;;;13.60;12.40;;;19.70;99.90;;;;;;4932956;28;20466;-81
2023/06/25 05:31:17;;;;;;;12.40;11.20;;;19.70;99.90;;;;;;4925167;29;20440;-82
2023/06/25 05:33:43;;;;;;;11.87;10.67;;;19.90;99.90;;;;;;4933525;29;20416;-80
2023/06/25 05:36:10;;;;;;;12.27;11.07;;;19.90;99.90;;;;;;4925547;28;20476;-78
2023/06/25 05:38:35;;;;;;;12.30;10.73;;;20.10;99.90;;;;;;4931178;29;20444;-78
2023/06/25 05:41:01;;;;;;;11.47;10.27;;;20.00;99.90;;;;;;4941017;28;20447;-80
2023/06/25 05:43:27;;;;;;;13.52;11.48;;;20.20;99.90;;;;;;4927143;29;20449;-80
2023/06/25 05:45:53;;;;;;;11.10;10.05;;;20.20;99.90;;;;;;4931728;28;20942;-80
2023/06/25 05:48:19;;;;;;;10.85;9.77;;;20.30;99.90;;;;;;4932784;29;20423;-79
2023/06/25 05:50:44;;;;;;;11.52;10.43;;;20.30;99.90;;;;;;4932673;28;20446;-81
2023/06/25 05:53:10;;;;;;;11.13;10.13;;;20.40;99.90;;;;;;4959186;28;20516;-79
2023/06/25 05:55:36;;;;;;;11.48;10.30;;;20.40;99.90;;;;;;4932135;28;21035;-81
2023/06/25 05:58:02;;;;;;;10.15;9.15;;;20.50;99.90;;;;;;4941642;28;20944;-78
2023/06/25 06:00:28;;;;;;;10.30;8.75;;;20.50;99.90;;;;;;4932124;29;20520;-84
2023/06/25 06:02:53;;;;;;;9.82;8.65;;;20.50;99.90;;;;;;4933294;29;20451;-79
2023/06/25 06:05:19;;;;;;;10.93;9.40;;;20.60;99.90;;;;;;4916830;29;20454;-79
2023/06/25 06:07:45;;;;;;;11.80;8.97;;;20.60;99.90;;;;;;4923166;29;20437;-78
2023/06/25 06:10:14;;;;;;;9.20;8.40;;;20.70;99.90;;;;;;4929561;28;20436;-78
2023/06/25 06:12:40;;;;;;;11.32;9.05;;;20.80;99.90;;;;;;4927134;28;20456;-79
2023/06/25 06:15:07;;;;;;;9.93;8.93;;;20.80;99.90;;;;;;4930630;28;20436;-80
2023/06/25 06:17:33;;;;;;;10.30;8.82;;;20.90;99.90;;;;;;4931832;29;20428;-80
2023/06/25 06:19:58;;;;;;;10.25;8.30;;;21.00;99.90;;;;;;4933416;29;20435;-80
2023/06/25 06:22:24;;;;;;;12.05;9.35;;;21.10;99.90;;;;;;4916052;28;20464;-78
2023/06/25 06:24:50;;;;;;;9.60;8.27;;;21.20;99.90;;;;;;4929883;28;20515;-77
2023/06/25 06:27:15;;;;;;;11.70;9.02;;;21.20;99.90;;;;;;4931903;29;20854;-80
2023/06/25 06:29:41;;;;;;;9.70;8.48;;;21.20;99.90;;;;;;4916439;29;20427;-83
2023/06/25 06:32:07;;;;;;;12.70;9.27;;;21.30;99.90;;;;;;4917612;28;20461;-80
2023/06/25 06:34:33;;;;;;;10.18;9.18;;;21.40;99.90;;;;;;4925089;28;20439;-80
2023/06/25 06:36:59;;;;;;;10.10;8.93;;;21.50;99.90;;;;;;4938338;28;20431;-84
2023/06/25 06:39:25;;;;;;;10.20;9.20;;;21.60;99.90;;;;;;4932978;29;20462;-82
2023/06/25 06:41:50;;;;;;;9.40;8.50;;;21.60;99.90;;;;;;4920629;28;20452;-81
2023/06/25 06:44:18;;;;;;;13.57;9.57;;;21.70;99.90;;;;;;4898271;28;20448;-81
2023/06/25 06:46:45;;;;;;;9.88;8.98;;;21.80;99.90;;;;;;4932738;29;20797;-82
2023/06/25 06:49:11;;;;;;;9.27;8.40;;;21.90;99.90;;;;;;4933095;29;20933;-81
2023/06/25 06:51:38;;;;;;;10.37;9.37;;;21.90;99.90;;;;;;4916957;29;20905;-80
2023/06/25 06:54:04;;;;;;;10.05;9.05;;;21.90;99.90;;;;;;4912289;28;20463;-79
2023/06/25 06:56:33;;;;;;;9.63;8.77;;;22.00;99.90;;;;;;4932703;29;20759;-82
2023/06/25 06:58:59;;;;;;;10.65;9.55;;;22.40;99.90;;;;;;4934598;29;20499;-81
2023/06/25 07:01:26;;;;;;;9.70;8.70;;;22.30;99.90;;;;;;4932457;29;20791;-79
2023/06/25 07:03:51;;;;;;;11.93;10.02;;;22.80;99.90;;;;;;4931577;28;20436;-80
2023/06/25 07:06:17;;;;;;;11.02;9.60;;;23.40;99.90;;;;;;4931825;29;20447;-79
2023/06/25 07:08:43;;;;;;;10.17;9.27;;;24.10;99.90;;;;;;4919141;29;20431;-81
2023/06/25 07:11:09;;;;;;;10.55;9.55;;;25.10;99.90;;;;;;4933930;29;20451;-85
2023/06/25 07:13:35;;;;;;;10.10;9.10;;;25.40;99.90;;;;;;4930734;29;20436;-79
2023/06/25 07:16:00;;;;;;;15.40;11.15;;;26.00;99.90;;;;;;4925481;28;20500;-80
2023/06/25 07:18:26;;;;;;;10.87;9.33;;;26.80;99.90;;;;;;4920705;29;20453;-79
2023/06/25 07:20:52;;;;;;;11.18;9.70;;;27.10;99.90;;;;;;4915900;28;20437;-80
2023/06/25 07:23:18;;;;;;;9.70;8.73;;;26.80;99.90;;;;;;4909879;29;20448;-80
2023/06/25 07:25:43;;;;;;;10.87;9.77;;;26.80;99.90;;;;;;4931758;29;20447;-78
2023/06/25 07:28:09;;;;;;;11.63;10.20;;;26.90;99.90;;;;;;4943490;28;20518;-79
2023/06/25 07:30:35;;;;;;;10.90;9.90;;;27.00;99.90;;;;;;4938055;28;20820;-81
2023/06/25 07:33:03;;;;;;;10.90;9.87;;;27.70;99.90;;;;;;4949229;28;20423;-82
2023/06/25 07:35:29;;;;;;;12.73;11.07;;;27.40;99.90;;;;;;4950408;28;20473;-78
2023/06/25 07:37:54;;;;;;;11.03;10.00;;;28.10;99.90;;;;;;4945904;28;20786;-84
2023/06/25 07:40:20;;;;;;;10.55;9.55;;;28.80;99.90;;;;;;4928618;29;20463;-80
2023/06/25 07:42:46;;;;;;;11.60;10.50;;;29.30;99.90;;;;;;4924166;28;20428;-78
2023/06/25 07:45:12;;;;;;;11.77;10.67;;;29.30;99.90;;;;;;4935824;29;20435;-79
2023/06/25 07:47:37;;;;;;;13.30;12.10;;;29.00;99.90;;;;;;4944252;28;20447;-77
2023/06/25 07:50:04;;;;;;;11.97;10.60;;;28.20;99.90;;;;;;4916846;29;20499;-80
2023/06/25 07:52:30;;;;;;;11.88;10.55;;;28.50;99.90;;;;;;4940384;28;20436;-78
2023/06/25 07:54:55;;;;;;;10.80;9.70;;;27.90;99.90;;;;;;4935114;29;21072;-79
2023/06/25 07:57:21;;;;;;;12.55;11.20;;;27.80;99.90;;;;;;4936656;29;20420;-78
2023/06/25 07:59:47;;;;;;;11.63;10.60;;;27.40;99.90;;;;;;4937158;28;20488;-79
2023/06/25 08:02:13;;;;;;;11.67;10.40;;;27.40;99.90;;;;;;4955286;28;20418;-80
2023/06/25 08:04:39;;;;;;;12.93;11.63;;;26.60;99.90;;;;;;4943367;29;20996;-80
2023/06/25 08:07:04;;;;;;;17.10;11.13;;;26.70;99.90;;;;;;4921571;29;20434;-80
2023/06/25 08:09:31;;;;;;;11.47;10.47;;;27.10;99.90;;;;;;4936323;29;20424;-79
2023/06/25 08:11:57;;;;;;;12.57;11.35;;;27.20;99.90;;;;;;4928383;29;20443;-80
2023/06/25 08:14:23;;;;;;;12.27;11.07;;;27.20;99.90;;;;;;4934761;28;20454;-79
2023/06/25 08:16:49;;;;;;;12.03;10.87;;;27.10;99.90;;;;;;4977818;28;20419;-77
2023/06/25 08:19:15;;;;;;;12.88;11.43;;;27.40;99.90;;;;;;4939935;29;20516;-79
2023/06/25 08:21:40;;;;;;;10.43;9.50;;;27.30;99.90;;;;;;4939255;28;20474;-80
2023/06/25 08:24:06;;;;;;;9.97;8.97;;;27.10;99.90;;;;;;4935905;29;20509;-81
2023/06/25 08:26:32;;;;;;;10.48;9.48;;;27.10;99.90;;;;;;4933838;28;20427;-77
2023/06/25 08:28:58;;;;;;;10.40;9.52;;;27.50;99.90;;;;;;4919634;28;20938;-81
2023/06/25 08:31:23;;;;;;;10.23;9.07;;;27.60;99.90;;;;;;4933419;29;20411;-82
2023/06/25 08:33:50;;;;;;;10.10;9.20;;;27.60;99.90;;;;;;4931796;28;20439;-81
2023/06/25 08:36:15;;;;;;;9.85;8.95;;;27.50;99.90;;;;;;4926936;28;20432;-81
2023/06/25 08:38:41;;;;;;;11.10;9.13;;;27.70;99.90;;;;;;4937184;28;20436;-82
2023/06/25 08:41:07;;;;;;;10.52;8.88;;;28.00;99.90;;;;;;4936803;29;20416;-82
2023/06/25 08:43:33;;;;;;;10.80;9.23;;;28.10;99.90;;;;;;4935816;29;20956;-81
2023/06/25 08:45:58;;;;;;;10.30;8.83;;;27.90;99.90;;;;;;4925481;28;20511;-75
2023/06/25 08:48:29;;;;;;;10.23;8.23;;;27.60;99.90;;;;;;4903459;28;20431;-78
2023/06/25 08:51:03;;;;;;;9.75;7.00;;;27.80;99.90;;;;;;4934051;29;20435;-79
2023/06/25 08:53:30;;;;;;;9.75;8.75;;;27.60;99.90;;;;;;4933405;29;20522;-81
2023/06/25 08:55:56;;;;;;;7.82;7.13;;;27.80;99.90;;;;;;4934967;28;20440;-81
2023/06/25 08:58:24;;;;;;;7.45;6.72;;;27.90;99.90;;;;;;4919341;28;20534;-83
2023/06/25 09:00:50;;;;;;;7.63;6.77;;;28.30;99.90;;;;;;4933162;29;20440;-81
2023/06/25 09:03:16;;;;;;;8.83;6.60;;;28.40;99.90;;;;;;4931546;29;20424;-81
2023/06/25 09:05:54;;;;;;;6.00;5.50;;;28.30;99.90;;;;;;4937152;28;20581;-83
2023/06/25 09:08:24;;;;;;;6.68;5.88;;;27.70;99.90;;;;;;4933000;28;20466;-80
2023/06/25 09:10:54;;;;;;;7.35;6.65;;;28.20;99.90;;;;;;4929623;28;20433;-84
2023/06/25 09:13:24;;;;;;;7.95;7.15;;;28.40;99.90;;;;;;4936369;29;20448;-86
2023/06/25 09:15:50;;;;;;;6.35;5.75;;;28.00;99.90;;;;;;4933904;28;20416;-81
2023/06/25 09:18:22;;;;;;;5.70;5.20;;;28.00;99.90;;;;;;4933951;29;20427;-81
2023/06/25 09:20:49;;;;;;;8.63;6.00;;;28.20;99.90;;;;;;4933418;28;20459;-83
2023/06/25 09:23:24;;;;;;;10.40;5.95;;;28.60;99.90;;;;;;4935535;29;20550;-82
2023/06/25 09:25:51;;;;;;;6.55;5.90;;;28.40;99.90;;;;;;4933026;29;20476;-84
2023/06/25 09:28:17;;;;;;;6.93;6.32;;;28.00;99.90;;;;;;4937264;29;20965;-81
2023/06/25 09:30:43;;;;;;;7.10;6.35;;;27.80;99.90;;;;;;4932958;29;20432;-80
2023/06/25 09:33:13;;;;;;;6.50;5.90;;;28.30;99.90;;;;;;4934857;29;20419;-79
2023/06/25 09:35:39;;;;;;;6.55;5.68;;;28.70;99.90;;;;;;4935668;29;20432;-84
2023/06/25 09:38:06;;;;;;;7.00;5.90;;;28.70;99.90;;;;;;4939933;29;20446;-81
2023/06/25 09:40:32;;;;;;;5.80;5.30;;;28.30;99.90;;;;;;4948370;29;20426;-80
2023/06/25 09:42:59;;;;;;;5.60;5.10;;;28.70;99.90;;;;;;4939518;28;20428;-81
2023/06/25 09:45:27;;;;;;;6.05;4.95;;;28.90;99.90;;;;;;4933429;29;20809;-78
2023/06/25 09:47:55;;;;;;;5.80;5.20;;;28.70;99.90;;;;;;4934758;29;20495;-83
2023/06/25 09:53:42;;;;;;;7.57;5.13;;;28.50;99.90;;;;;;4947127;28;20449;-79
2023/06/25 09:56:09;;;;;;;8.10;5.63;;;28.80;99.90;;;;;;4944026;28;20432;-81
2023/06/25 09:58:36;;;;;;;6.45;4.95;;;28.90;99.90;;;;;;4934448;28;20428;-79
2023/06/25 10:01:02;;;;;;;5.70;5.17;;;29.10;99.90;;;;;;4932540;29;20882;-82
2023/06/25 10:03:29;;;;;;;7.63;6.05;;;29.30;99.90;;;;;;4936814;28;20486;-79
2023/06/25 10:05:55;;;;;;;5.80;5.20;;;29.00;99.90;;;;;;4935198;29;20424;-80
2023/06/25 10:08:21;;;;;;;7.00;5.22;;;29.30;99.90;;;;;;4949614;28;20430;-79
2023/06/25 10:10:58;;;;;;;5.50;5.00;;;28.90;99.90;;;;;;4935597;29;20507;-81
2023/06/25 10:13:24;;;;;;;6.30;5.70;;;29.00;99.90;;;;;;4952085;29;20398;-79
2023/06/25 10:16:01;;;;;;;5.65;5.05;;;29.20;99.90;;;;;;4938946;28;20505;-79
2023/06/25 10:18:26;;;;;;;5.47;4.50;;;28.90;99.90;;;;;;4923142;29;20445;-81
2023/06/25 10:20:57;;;;;;;4.57;3.97;;;29.00;99.90;;;;;;4933107;28;20440;-83
2023/06/25 10:23:23;;;;;;;4.40;4.00;;;28.90;99.90;;;;;;4937388;29;20424;-84
2023/06/25 10:25:54;;;;;;;4.82;4.43;;;29.30;99.90;;;;;;4938247;29;20436;-82
2023/06/25 10:28:37;;;;;;;6.47;5.03;;;29.60;99.90;;;;;;4935715;28;20495;-82
2023/06/25 10:31:13;;;;;;;4.60;4.20;;;29.70;99.80;;;;;;4934250;28;20468;-82
2023/06/25 10:33:39;;;;;;;5.43;4.43;;;29.60;99.40;;;;;;4937055;29;20833;-81
2023/06/25 10:36:08;;;;;;;5.15;4.60;;;29.70;99.90;;;;;;4921328;28;20458;-85
2023/06/25 10:38:34;;;;;;;6.15;5.00;;;29.60;98.90;;;;;;4933421;28;20429;-82
2023/06/25 10:41:00;;;;;;;7.40;4.45;;;29.50;97.50;;;;;;4921127;28;20440;-81
2023/06/25 10:43:26;;;;;;;6.37;4.57;;;29.60;98.90;;;;;;4933955;28;20523;-84
2023/06/25 10:45:53;;;;;;;5.05;4.28;;;29.80;99.90;;;;;;4924274;28;20440;-83
2023/06/25 10:48:20;;;;;;;4.43;4.03;;;29.60;98.20;;;;;;4938881;28;20431;-85
2023/06/25 10:50:47;;;;;;;6.47;4.10;;;29.90;97.80;;;;;;4923646;29;20445;-84
2023/06/25 10:53:17;;;;;;;4.45;4.03;;;29.80;99.30;;;;;;4935962;29;20432;-86
2023/06/25 10:55:49;;;;;;;4.57;3.70;;;30.10;98.30;;;;;;4913446;29;20446;-84
2023/06/25 10:58:19;;;;;;;3.80;3.40;;;30.20;98.40;;;;;;4936853;29;20853;-83
2023/06/25 11:00:45;;;;;;;4.50;3.35;;;30.50;97.40;;;;;;4920421;29;20447;-83
2023/06/25 11:03:12;;;;;;;3.60;3.28;;;30.20;94.20;;;;;;4940701;28;20447;-80
2023/06/25 11:05:45;;;;;;;3.40;3.10;;;30.30;93.10;;;;;;4933541;29;20433;-81
2023/06/25 11:08:13;;;;;;;4.72;3.72;;;30.50;93.90;;;;;;4953424;28;20498;-79
2023/06/25 11:10:39;;;;;;;4.10;3.10;;;30.30;93.90;;;;;;4928703;28;20422;-82
2023/06/25 11:13:09;;;;;;;4.80;3.90;;;30.40;93.30;;;;;;4944122;28;20444;-82
2023/06/25 11:15:35;;;;;;;3.92;3.53;;;30.20;92.50;;;;;;4948796;28;20458;-78
2023/06/25 11:18:03;;;;;;;4.95;3.30;;;30.30;92.50;;;;;;4937916;28;20436;-78
2023/06/25 11:20:29;;;;;;;4.20;3.80;;;30.20;91.60;;;;;;4934636;29;20425;-82
2023/06/25 11:23:01;;;;;;;6.45;3.47;;;30.30;92.00;;;;;;4933852;28;20455;-81
2023/06/25 11:25:29;;;;;;;4.97;4.00;;;30.40;90.60;;;;;;4941131;29;20442;-83
2023/06/25 11:28:15;;;;;;;4.07;3.50;;;30.10;91.80;;;;;;4942210;28;20413;-82
2023/06/25 11:30:43;;;;;;;7.10;3.88;;;30.20;91.10;;;;;;4940971;29;20603;-81
2023/06/25 11:33:17;;;;;;;5.88;3.88;;;29.80;89.80;;;;;;4938707;29;20436;-76
2023/06/25 11:35:49;;;;;;;5.00;3.93;;;30.30;90.80;;;;;;4940173;28;20501;-85
2023/06/25 11:38:28;;;;;;;3.95;3.58;;;30.50;91.50;;;;;;4931890;29;20420;-84
2023/06/25 11:40:57;;;;;;;5.00;3.90;;;30.50;90.50;;;;;;4929288;28;20435;-84
2023/06/25 11:43:23;;;;;;;4.65;4.20;;;30.40;91.20;;;;;;4945253;28;20436;-81
2023/06/25 11:45:49;;;;;;;8.35;3.88;;;30.10;89.00;;;;;;4949437;29;20430;-82
2023/06/25 11:48:17;;;;;;;4.47;4.00;;;30.50;86.60;;;;;;4950383;28;20431;-81
2023/06/25 11:50:44;;;;;;;4.20;3.85;;;30.80;87.50;;;;;;4947964;29;20427;-84
2023/06/25 11:53:10;;;;;;;4.45;4.00;;;30.70;81.20;;;;;;4944247;29;20492;-83
2023/06/25 11:55:36;;;;;;;6.73;4.70;;;30.90;83.50;;;;;;4939134;29;20512;-85
2023/06/25 11:58:01;;;;;;;5.25;3.90;;;30.90;82.70;;;;;;4933307;29;20451;-85
2023/06/25 12:00:27;;;;;;;5.18;4.45;;;30.90;84.70;;;;;;4930668;28;20551;-83
2023/06/25 12:02:53;;;;;;;10.13;4.60;;;30.80;84.10;;;;;;4941769;29;20487;-82
2023/06/25 12:05:19;;;;;;;6.38;4.63;;;30.80;85.00;;;;;;4941314;28;20517;-84
2023/06/25 12:07:44;;;;;;;5.13;4.47;;;30.80;83.50;;;;;;4923875;28;20462;-85
2023/06/25 12:10:10;;;;;;;6.32;4.55;;;31.00;84.70;;;;;;4940831;29;20474;-85
2023/06/25 12:12:36;;;;;;;5.47;4.95;;;31.10;83.70;;;;;;4922695;29;20503;-83
2023/06/25 12:15:03;;;;;;;5.18;4.20;;;31.10;85.40;;;;;;4938979;28;20902;-85
2023/06/25 12:17:28;;;;;;;5.15;4.70;;;31.20;84.10;;;;;;4921831;28;20432;-81
2023/06/25 12:19:54;;;;;;;5.13;4.17;;;31.20;75.60;;;;;;4933644;28;20498;-83
2023/06/25 12:22:20;;;;;;;6.07;4.45;;;31.10;76.80;;;;;;4938995;28;20459;-84
2023/06/25 12:24:45;;;;;;;4.27;3.87;;;30.70;77.50;;;;;;4939576;29;20436;-82
2023/06/25 12:27:11;;;;;;;6.15;4.20;;;31.10;81.30;;;;;;4940063;28;20454;-83
2023/06/25 12:29:37;;;;;;;6.17;4.37;;;30.90;78.30;;;;;;4936722;28;20766;-84
2023/06/25 12:32:03;;;;;;;6.07;4.53;;;31.30;80.80;;;;;;4904965;29;20418;-84
2023/06/25 12:34:29;;;;;;;4.25;3.85;;;31.20;78.60;;;;;;4940402;29;20427;-82
2023/06/25 12:36:54;;;;;;;5.07;4.57;;;31.00;77.20;;;;;;4938856;29;20878;-84